sensor_id;sensor_type;location;lat;lon;timestamp;pressure;altitude;pressure_sealevel;temperature;humidity
14293;BME280;62290;59.420;17.842;2023-03-14T00:02:32;96836.47;;;25.96;22.95
14293;BME280;62290;59.420;17.842;2023-03-14T00:05:00;96837.53;;;25.95;23.41
14293;BME280;62290;59.420;17.842;2023-03-14T00:07:29;96834.00;;;25.95;23.22
14293;BME280;62290;59.420;17.842;2023-03-14T00:10:01;96831.56;;;25.93;23.52
14293;BME280;62290;59.420;17.842;2023-03-14T00:12:31;96826.63;;;25.90;23.32
14293;BME280;62290;59.420;17.842;2023-03-14T00:15:01;96836.59;;;25.90;23.51
14293;BME280;62290;59.420;17.842;2023-03-14T00:17:31;96826.88;;;25.89;23.58
14293;BME280;62290;59.420;17.842;2023-03-14T00:19:59;96829.81;;;25.87;23.53
14293;BME280;62290;59.420;17.842;2023-03-14T00:22:31;96830.06;;;25.86;23.26
14293;BME280;62290;59.420;17.842;2023-03-14T00:24:59;96831.94;;;25.85;23.25
14293;BME280;62290;59.420;17.842;2023-03-14T00:27:27;96825.97;;;25.83;23.24
14293;BME280;62290;59.420;17.842;2023-03-14T00:29:55;96825.41;;;25.81;23.30
14293;BME280;62290;59.420;17.842;2023-03-14T00:32:24;96825.06;;;25.77;23.52
14293;BME280;62290;59.420;17.842;2023-03-14T00:34:52;96822.09;;;25.79;23.27
14293;BME280;62290;59.420;17.842;2023-03-14T00:37:20;96822.34;;;25.77;23.26
14293;BME280;62290;59.420;17.842;2023-03-14T00:39:50;96823.41;;;25.76;23.34
14293;BME280;62290;59.420;17.842;2023-03-14T00:42:18;96816.38;;;25.75;23.30
14293;BME280;62290;59.420;17.842;2023-03-14T00:44:46;96821.78;;;25.75;23.27
14293;BME280;62290;59.420;17.842;2023-03-14T00:47:14;96818.47;;;25.73;23.30
14293;BME280;62290;59.420;17.842;2023-03-14T00:49:44;96818.16;;;25.70;23.91
14293;BME280;62290;59.420;17.842;2023-03-14T00:52:12;96816.28;;;25.70;23.71
14293;BME280;62290;59.420;17.842;2023-03-14T00:54:40;96819.22;;;25.69;23.47
14293;BME280;62290;59.420;17.842;2023-03-14T00:57:08;96819.22;;;25.69;23.78
14293;BME280;62290;59.420;17.842;2023-03-14T00:59:36;96814.91;;;25.68;23.75
14293;BME280;62290;59.420;17.842;2023-03-14T01:02:04;96808.06;;;25.65;23.70
14293;BME280;62290;59.420;17.842;2023-03-14T01:04:32;96812.69;;;25.65;23.42
14293;BME280;62290;59.420;17.842;2023-03-14T01:07:02;96809.16;;;25.64;23.90
14293;BME280;62290;59.420;17.842;2023-03-14T01:09:31;96800.16;;;25.59;23.80
14293;BME280;62290;59.420;17.842;2023-03-14T01:11:59;96806.69;;;25.63;23.47
14293;BME280;62290;59.420;17.842;2023-03-14T01:14:26;96800.50;;;25.62;23.85
14293;BME280;62290;59.420;17.842;2023-03-14T01:16:54;96807.75;;;25.62;23.66
14293;BME280;62290;59.420;17.842;2023-03-14T01:19:27;96777.19;;;25.45;23.48
14293;BME280;62290;59.420;17.842;2023-03-14T01:21:55;96810.47;;;25.62;23.90
14293;BME280;62290;59.420;17.842;2023-03-14T01:24:24;96798.59;;;25.63;23.84
14293;BME280;62290;59.420;17.842;2023-03-14T01:26:52;96803.19;;;25.62;23.99
14293;BME280;62290;59.420;17.842;2023-03-14T01:29:22;96801.28;;;25.63;23.70
14293;BME280;62290;59.420;17.842;2023-03-14T01:31:50;96792.63;;;25.61;24.00
14293;BME280;62290;59.420;17.842;2023-03-14T01:34:18;96800.50;;;25.62;23.88
14293;BME280;62290;59.420;17.842;2023-03-14T01:36:47;96806.69;;;25.63;23.81
14293;BME280;62290;59.420;17.842;2023-03-14T01:39:16;96803.97;;;25.63;23.73
14293;BME280;62290;59.420;17.842;2023-03-14T01:41:45;96801.06;;;25.64;24.00
14293;BME280;62290;59.420;17.842;2023-03-14T01:44:13;96802.94;;;25.64;23.54
14293;BME280;62290;59.420;17.842;2023-03-14T01:46:45;96809.97;;;25.65;23.84
14293;BME280;62290;59.420;17.842;2023-03-14T01:49:22;96802.69;;;25.65;23.58
14293;BME280;62290;59.420;17.842;2023-03-14T01:52:02;96813.72;;;25.64;23.79
14293;BME280;62290;59.420;17.842;2023-03-14T01:54:37;96814.28;;;25.66;24.08
14293;BME280;62290;59.420;17.842;2023-03-14T01:57:11;96810.78;;;25.65;23.79
14293;BME280;62290;59.420;17.842;2023-03-14T01:59:48;96799.31;;;25.58;24.03
14293;BME280;62290;59.420;17.842;2023-03-14T02:02:19;96819.38;;;25.62;23.79
14293;BME280;62290;59.420;17.842;2023-03-14T02:04:47;96828.25;;;25.63;23.77
14293;BME280;62290;59.420;17.842;2023-03-14T02:07:20;96825.56;;;25.63;23.68
14293;BME280;62290;59.420;17.842;2023-03-14T02:10:03;96820.06;;;25.58;24.25
14293;BME280;62290;59.420;17.842;2023-03-14T02:12:34;96819.38;;;25.51;24.25
14293;BME280;62290;59.420;17.842;2023-03-14T02:15:13;96843.84;;;25.61;23.84
14293;BME280;62290;59.420;17.842;2023-03-14T02:17:57;96841.16;;;25.61;23.85
14293;BME280;62290;59.420;17.842;2023-03-14T02:20:42;96845.50;;;25.62;24.30
14293;BME280;62290;59.420;17.842;2023-03-14T02:23:15;96855.47;;;25.61;23.81
14293;BME280;62290;59.420;17.842;2023-03-14T02:25:48;96847.13;;;25.63;24.31
14293;BME280;62290;59.420;17.842;2023-03-14T02:28:20;96818.25;;;25.47;23.92
14293;BME280;62290;59.420;17.842;2023-03-14T02:30:53;96844.41;;;25.63;24.06
14293;BME280;62290;59.420;17.842;2023-03-14T02:33:22;96848.19;;;25.62;24.14
14293;BME280;62290;59.420;17.842;2023-03-14T02:35:53;96840.94;;;25.62;24.43
14293;BME280;62290;59.420;17.842;2023-03-14T02:38:29;96849.03;;;25.62;24.32
14293;BME280;62290;59.420;17.842;2023-03-14T02:41:01;96856.28;;;25.62;24.18
14293;BME280;62290;59.420;17.842;2023-03-14T02:43:34;96858.97;;;25.62;24.32
14293;BME280;62290;59.420;17.842;2023-03-14T02:46:09;96867.06;;;25.62;23.96
14293;BME280;62290;59.420;17.842;2023-03-14T02:48:40;96867.91;;;25.62;24.39
14293;BME280;62290;59.420;17.842;2023-03-14T02:51:10;96864.38;;;25.62;24.06
14293;BME280;62290;59.420;17.842;2023-03-14T02:53:40;96873.50;;;25.61;23.89
14293;BME280;62290;59.420;17.842;2023-03-14T02:56:11;96871.38;;;25.63;24.16
14293;BME280;62290;59.420;17.842;2023-03-14T02:58:40;96879.47;;;25.63;24.34
14293;BME280;62290;59.420;17.842;2023-03-14T03:01:25;96881.59;;;25.61;24.46
14293;BME280;62290;59.420;17.842;2023-03-14T03:03:53;96880.53;;;25.62;24.32
14293;BME280;62290;59.420;17.842;2023-03-14T03:06:22;96868.94;;;25.61;24.60
14293;BME280;62290;59.420;17.842;2023-03-14T03:08:50;96878.91;;;25.61;24.06
14293;BME280;62290;59.420;17.842;2023-03-14T03:11:18;96880.75;;;25.60;24.10
14293;BME280;62290;59.420;17.842;2023-03-14T03:13:47;96874.31;;;25.61;24.64
14293;BME280;62290;59.420;17.842;2023-03-14T03:16:16;96890.50;;;25.61;24.52
14293;BME280;62290;59.420;17.842;2023-03-14T03:18:44;96891.31;;;25.62;24.50
14293;BME280;62290;59.420;17.842;2023-03-14T03:21:12;96895.91;;;25.61;24.38
14293;BME280;62290;59.420;17.842;2023-03-14T03:23:42;96894.50;;;25.59;24.43
14293;BME280;62290;59.420;17.842;2023-03-14T03:26:10;96893.66;;;25.58;24.58
14293;BME280;62290;59.420;17.842;2023-03-14T03:28:38;96899.88;;;25.59;24.59
14293;BME280;62290;59.420;17.842;2023-03-14T03:31:09;96914.19;;;25.59;24.44
14293;BME280;62290;59.420;17.842;2023-03-14T03:33:38;96913.38;;;25.59;24.15
14293;BME280;62290;59.420;17.842;2023-03-14T03:36:08;96924.16;;;25.59;24.33
14293;BME280;62290;59.420;17.842;2023-03-14T03:38:38;96914.41;;;25.58;24.12
14293;BME280;62290;59.420;17.842;2023-03-14T03:41:07;96925.19;;;25.58;24.60
14293;BME280;62290;59.420;17.842;2023-03-14T03:43:35;96925.19;;;25.58;24.31
14293;BME280;62290;59.420;17.842;2023-03-14T03:46:07;96917.94;;;25.58;24.40
14293;BME280;62290;59.420;17.842;2023-03-14T03:48:36;96917.94;;;25.58;24.30
14293;BME280;62290;59.420;17.842;2023-03-14T03:51:05;96919.22;;;25.56;23.96
14293;BME280;62290;59.420;17.842;2023-03-14T03:53:34;96930.59;;;25.58;23.97
14293;BME280;62290;59.420;17.842;2023-03-14T03:56:08;96915.47;;;25.57;24.32
14293;BME280;62290;59.420;17.842;2023-03-14T03:58:36;96920.88;;;25.57;23.94
14293;BME280;62290;59.420;17.842;2023-03-14T04:01:08;96913.84;;;25.56;23.98
14293;BME280;62290;59.420;17.842;2023-03-14T04:03:37;96926.47;;;25.55;24.25
14293;BME280;62290;59.420;17.842;2023-03-14T04:06:08;96939.97;;;25.55;24.29
14293;BME280;62290;59.420;17.842;2023-03-14T04:08:38;96919.56;;;25.36;24.00
14293;BME280;62290;59.420;17.842;2023-03-14T04:11:10;96932.09;;;25.42;23.79
14293;BME280;62290;59.420;17.842;2023-03-14T04:13:58;96938.31;;;25.43;23.88
14293;BME280;62290;59.420;17.842;2023-03-14T04:16:29;96959.09;;;25.54;23.77
14293;BME280;62290;59.420;17.842;2023-03-14T04:19:07;96955.81;;;25.52;23.57
14293;BME280;62290;59.420;17.842;2023-03-14T04:21:35;96957.22;;;25.54;23.51
14293;BME280;62290;59.420;17.842;2023-03-14T04:24:09;96938.88;;;25.45;23.99
14293;BME280;62290;59.420;17.842;2023-03-14T04:26:37;96948.53;;;25.52;23.70
14293;BME280;62290;59.420;17.842;2023-03-14T04:29:07;96960.13;;;25.53;23.90
14293;BME280;62290;59.420;17.842;2023-03-14T04:31:39;96957.69;;;25.51;23.95
14293;BME280;62290;59.420;17.842;2023-03-14T04:34:08;96969.28;;;25.52;23.48
14293;BME280;62290;59.420;17.842;2023-03-14T04:36:42;96963.91;;;25.52;23.94
14293;BME280;62290;59.420;17.842;2023-03-14T04:39:15;96980.06;;;25.52;23.91
14293;BME280;62290;59.420;17.842;2023-03-14T04:41:51;96981.94;;;25.51;23.78
14293;BME280;62290;59.420;17.842;2023-03-14T04:44:20;96982.41;;;25.48;23.79
14293;BME280;62290;59.420;17.842;2023-03-14T04:46:52;96977.59;;;25.50;23.45
14293;BME280;62290;59.420;17.842;2023-03-14T04:49:20;96987.53;;;25.50;23.85
14293;BME280;62290;59.420;17.842;2023-03-14T04:51:49;97002.09;;;25.49;23.67
14293;BME280;62290;59.420;17.842;2023-03-14T04:54:18;96989.97;;;25.40;23.79
14293;BME280;62290;59.420;17.842;2023-03-14T04:56:50;97006.66;;;25.48;23.58
14293;BME280;62290;59.420;17.842;2023-03-14T04:59:19;97011.47;;;25.46;23.67
14293;BME280;62290;59.420;17.842;2023-03-14T05:01:48;97018.47;;;25.47;23.65
14293;BME280;62290;59.420;17.842;2023-03-14T05:04:41;97029.25;;;25.47;23.93
14293;BME280;62290;59.420;17.842;2023-03-14T05:07:32;97028.47;;;25.47;23.41
14293;BME280;62290;59.420;17.842;2023-03-14T05:10:15;97034.03;;;25.45;23.32
14293;BME280;62290;59.420;17.842;2023-03-14T05:13:04;97042.38;;;25.44;23.77
14293;BME280;62290;59.420;17.842;2023-03-14T05:15:52;97046.13;;;25.43;23.35
14293;BME280;62290;59.420;17.842;2023-03-14T05:18:39;97053.63;;;25.41;23.65
14293;BME280;62290;59.420;17.842;2023-03-14T05:21:17;97058.44;;;25.39;23.75
14293;BME280;62290;59.420;17.842;2023-03-14T05:24:05;97064.28;;;25.36;23.58
14293;BME280;62290;59.420;17.842;2023-03-14T05:26:53;97084.19;;;25.35;23.47
14293;BME280;62290;59.420;17.842;2023-03-14T05:29:39;97092.72;;;25.32;23.31
14293;BME280;62290;59.420;17.842;2023-03-14T05:32:25;97100.81;;;25.32;23.42
14293;BME280;62290;59.420;17.842;2023-03-14T05:35:12;97100.59;;;25.33;23.43
14293;BME280;62290;59.420;17.842;2023-03-14T05:37:47;97100.34;;;25.35;24.09
14293;BME280;62290;59.420;17.842;2023-03-14T05:40:41;97104.13;;;25.34;23.93
14293;BME280;62290;59.420;17.842;2023-03-14T05:43:28;97118.16;;;25.36;23.65
14293;BME280;62290;59.420;17.842;2023-03-14T05:46:09;97120.88;;;25.36;23.77
14293;BME280;62290;59.420;17.842;2023-03-14T05:49:10;97130.59;;;25.37;23.83
14293;BME280;62290;59.420;17.842;2023-03-14T05:51:49;97127.53;;;25.33;24.19
14293;BME280;62290;59.420;17.842;2023-03-14T05:54:27;97143.59;;;25.40;24.23
14293;BME280;62290;59.420;17.842;2023-03-14T05:57:22;97143.59;;;25.40;24.20
14293;BME280;62290;59.420;17.842;2023-03-14T06:00:17;97161.66;;;25.39;23.89
14293;BME280;62290;59.420;17.842;2023-03-14T06:03:05;97173.84;;;25.42;24.10
14293;BME280;62290;59.420;17.842;2023-03-14T06:05:38;97181.69;;;25.43;23.86
14293;BME280;62290;59.420;17.842;2023-03-14T06:08:06;97177.97;;;25.44;23.71
14293;BME280;62290;59.420;17.842;2023-03-14T06:10:36;97175.28;;;25.44;23.82
14293;BME280;62290;59.420;17.842;2023-03-14T06:13:04;97184.97;;;25.45;23.99
14293;BME280;62290;59.420;17.842;2023-03-14T06:15:33;97186.66;;;25.46;23.84
14293;BME280;62290;59.420;17.842;2023-03-14T06:18:03;97199.31;;;25.46;23.96
14293;BME280;62290;59.420;17.842;2023-03-14T06:20:32;97208.22;;;25.46;23.95
14293;BME280;62290;59.420;17.842;2023-03-14T06:23:02;97214.63;;;25.45;24.00
14293;BME280;62290;59.420;17.842;2023-03-14T06:25:31;97217.56;;;25.44;24.01
14293;BME280;62290;59.420;17.842;2023-03-14T06:28:01;97221.88;;;25.45;24.14
14293;BME280;62290;59.420;17.842;2023-03-14T06:30:30;97228.81;;;25.41;23.97
14293;BME280;62290;59.420;17.842;2023-03-14T06:32:58;97233.75;;;25.44;24.07
14293;BME280;62290;59.420;17.842;2023-03-14T06:35:27;97241.59;;;25.45;24.21
14293;BME280;62290;59.420;17.842;2023-03-14T06:37:55;97242.28;;;25.41;24.33
14293;BME280;62290;59.420;17.842;2023-03-14T06:40:23;97250.94;;;25.43;23.99
14293;BME280;62290;59.420;17.842;2023-03-14T06:42:58;97255.50;;;25.42;24.31
14293;BME280;62290;59.420;17.842;2023-03-14T06:45:30;97259.88;;;25.43;24.26
14293;BME280;62290;59.420;17.842;2023-03-14T06:48:00;97256.34;;;25.43;23.96
14293;BME280;62290;59.420;17.842;2023-03-14T06:50:36;97260.09;;;25.42;24.12
14293;BME280;62290;59.420;17.842;2023-03-14T06:53:04;97263.84;;;25.41;23.87
14293;BME280;62290;59.420;17.842;2023-03-14T06:55:35;97274.88;;;25.39;23.97
14293;BME280;62290;59.420;17.842;2023-03-14T06:58:03;97286.44;;;25.40;24.20
14293;BME280;62290;59.420;17.842;2023-03-14T07:00:40;97286.44;;;25.40;24.20
14293;BME280;62290;59.420;17.842;2023-03-14T07:03:10;97289.13;;;25.40;24.14
14293;BME280;62290;59.420;17.842;2023-03-14T07:05:41;97298.88;;;25.41;23.90
14293;BME280;62290;59.420;17.842;2023-03-14T07:08:09;97303.22;;;25.42;23.79
14293;BME280;62290;59.420;17.842;2023-03-14T07:10:38;97318.34;;;25.43;23.64
14293;BME280;62290;59.420;17.842;2023-03-14T07:13:07;97323.72;;;25.43;24.22
14293;BME280;62290;59.420;17.842;2023-03-14T07:15:46;97329.72;;;25.45;23.81
14293;BME280;62290;59.420;17.842;2023-03-14T07:18:14;97337.78;;;25.45;23.94
14293;BME280;62290;59.420;17.842;2023-03-14T07:20:42;97349.41;;;25.45;23.82
14293;BME280;62290;59.420;17.842;2023-03-14T07:23:10;97355.66;;;25.46;23.82
14293;BME280;62290;59.420;17.842;2023-03-14T07:25:48;97347.84;;;25.38;23.84
14293;BME280;62290;59.420;17.842;2023-03-14T07:28:19;97372.66;;;25.46;23.80
14293;BME280;62290;59.420;17.842;2023-03-14T07:30:51;97376.97;;;25.47;23.88
14293;BME280;62290;59.420;17.842;2023-03-14T07:33:27;97396.91;;;25.46;23.91
14293;BME280;62290;59.420;17.842;2023-03-14T07:35:56;97395.06;;;25.47;23.97
14293;BME280;62290;59.420;17.842;2023-03-14T07:38:24;97393.41;;;25.46;24.12
14293;BME280;62290;59.420;17.842;2023-03-14T07:41:08;97411.41;;;25.45;23.82
14293;BME280;62290;59.420;17.842;2023-03-14T07:43:45;97417.88;;;25.44;23.66
14293;BME280;62290;59.420;17.842;2023-03-14T07:46:14;97415.16;;;25.44;23.99
14293;BME280;62290;59.420;17.842;2023-03-14T07:48:44;97419.94;;;25.42;23.97
14293;BME280;62290;59.420;17.842;2023-03-14T07:51:12;97424.53;;;25.42;23.70
14293;BME280;62290;59.420;17.842;2023-03-14T07:53:40;97432.59;;;25.42;23.56
14293;BME280;62290;59.420;17.842;2023-03-14T07:56:09;97430.94;;;25.41;23.98
14293;BME280;62290;59.420;17.842;2023-03-14T07:58:37;97427.22;;;25.42;23.58
14293;BME280;62290;59.420;17.842;2023-03-14T08:01:05;97428.84;;;25.43;23.70
14293;BME280;62290;59.420;17.842;2023-03-14T08:03:35;97434.84;;;25.45;23.66
14293;BME280;62290;59.420;17.842;2023-03-14T08:06:03;97444.81;;;25.44;23.81
14293;BME280;62290;59.420;17.842;2023-03-14T08:08:31;97458.28;;;25.44;23.66
14293;BME280;62290;59.420;17.842;2023-03-14T08:11:03;97468.25;;;25.44;23.93
14293;BME280;62290;59.420;17.842;2023-03-14T08:13:31;97466.38;;;25.44;23.97
14293;BME280;62290;59.420;17.842;2023-03-14T08:15:59;97467.19;;;25.45;24.37
14293;BME280;62290;59.420;17.842;2023-03-14T08:18:27;97468.00;;;25.45;24.36
14293;BME280;62290;59.420;17.842;2023-03-14T08:20:56;97459.75;;;25.47;24.51
14293;BME280;62290;59.420;17.842;2023-03-14T08:23:24;97468.44;;;25.49;24.08
14293;BME280;62290;59.420;17.842;2023-03-14T08:25:52;97465.72;;;25.49;24.38
14293;BME280;62290;59.420;17.842;2023-03-14T08:28:20;97461.97;;;25.50;24.21
14293;BME280;62290;59.420;17.842;2023-03-14T08:30:48;97453.88;;;25.50;24.28
14293;BME280;62290;59.420;17.842;2023-03-14T08:33:16;97456.59;;;25.50;24.12
14293;BME280;62290;59.420;17.842;2023-03-14T08:35:44;97464.66;;;25.50;23.68
14293;BME280;62290;59.420;17.842;2023-03-14T08:38:14;97461.97;;;25.50;23.63
14293;BME280;62290;59.420;17.842;2023-03-14T08:40:42;97460.09;;;25.50;23.64
14293;BME280;62290;59.420;17.842;2023-03-14T08:43:10;97466.31;;;25.51;23.92
14293;BME280;62290;59.420;17.842;2023-03-14T08:45:38;97460.94;;;25.51;23.36
14293;BME280;62290;59.420;17.842;2023-03-14T08:48:06;97465.06;;;25.53;23.29
14293;BME280;62290;59.420;17.842;2023-03-14T08:50:34;97469.19;;;25.56;23.66
14293;BME280;62290;59.420;17.842;2023-03-14T08:53:01;97464.16;;;25.59;23.22
14293;BME280;62290;59.420;17.842;2023-03-14T08:55:31;97458.53;;;25.61;23.25
14293;BME280;62290;59.420;17.842;2023-03-14T08:57:59;97462.44;;;25.65;23.23
14293;BME280;62290;59.420;17.842;2023-03-14T09:00:27;97449.72;;;25.54;23.09
14293;BME280;62290;59.420;17.842;2023-03-14T09:02:55;97467.06;;;25.76;23.34
14293;BME280;62290;59.420;17.842;2023-03-14T09:05:23;97462.31;;;25.78;23.52
14293;BME280;62290;59.420;17.842;2023-03-14T09:07:51;97480.88;;;25.86;23.37
14293;BME280;62290;59.420;17.842;2023-03-14T09:10:19;97482.06;;;25.90;23.09
14293;BME280;62290;59.420;17.842;2023-03-14T09:12:49;97472.31;;;25.89;23.00
14293;BME280;62290;59.420;17.842;2023-03-14T09:15:17;97467.31;;;25.93;23.29
14293;BME280;62290;59.420;17.842;2023-03-14T09:17:45;97470.84;;;25.93;23.21
14293;BME280;62290;59.420;17.842;2023-03-14T09:20:13;97471.66;;;25.94;22.87
14293;BME280;62290;59.420;17.842;2023-03-14T09:22:41;97478.47;;;25.96;23.26
14293;BME280;62290;59.420;17.842;2023-03-14T09:25:10;97482.22;;;25.95;23.33
14293;BME280;62290;59.420;17.842;2023-03-14T09:27:38;97491.59;;;25.93;22.90
14293;BME280;62290;59.420;17.842;2023-03-14T09:30:08;97487.22;;;25.92;22.86
14293;BME280;62290;59.420;17.842;2023-03-14T09:32:37;97496.59;;;25.89;22.92
14293;BME280;62290;59.420;17.842;2023-03-14T09:35:05;97499.28;;;25.89;23.19
14293;BME280;62290;59.420;17.842;2023-03-14T09:37:33;97513.25;;;25.86;22.85
14293;BME280;62290;59.420;17.842;2023-03-14T09:40:01;97507.88;;;25.86;23.23
14293;BME280;62290;59.420;17.842;2023-03-14T09:42:37;97507.25;;;25.84;23.29
14293;BME280;62290;59.420;17.842;2023-03-14T09:45:11;97518.84;;;25.85;24.28
14293;BME280;62290;59.420;17.842;2023-03-14T09:47:41;97521.78;;;25.83;24.58
14293;BME280;62290;59.420;17.842;2023-03-14T09:50:25;97524.50;;;25.83;24.44
14293;BME280;62290;59.420;17.842;2023-03-14T09:52:58;97536.47;;;25.87;25.49
14293;BME280;62290;59.420;17.842;2023-03-14T09:55:28;97538.47;;;25.92;25.71
14293;BME280;62290;59.420;17.842;2023-03-14T09:58:00;97531.81;;;25.94;26.06
14293;BME280;62290;59.420;17.842;2023-03-14T10:00:31;97541.97;;;25.99;26.51
14293;BME280;62290;59.420;17.842;2023-03-14T10:03:15;97538.34;;;26.05;27.66
14293;BME280;62290;59.420;17.842;2023-03-14T10:05:48;97536.25;;;26.07;28.52
14293;BME280;62290;59.420;17.842;2023-03-14T10:08:16;97548.47;;;26.09;29.53
14293;BME280;62290;59.420;17.842;2023-03-14T10:10:44;97551.34;;;26.14;30.71
14293;BME280;62290;59.420;17.842;2023-03-14T10:13:15;97555.25;;;26.18;31.87
14293;BME280;62290;59.420;17.842;2023-03-14T10:15:50;97567.25;;;26.22;33.15
14293;BME280;62290;59.420;17.842;2023-03-14T10:18:19;97563.47;;;26.23;33.77
14293;BME280;62290;59.420;17.842;2023-03-14T10:20:48;97570.91;;;26.28;34.58
14293;BME280;62290;59.420;17.842;2023-03-14T10:23:24;97568.56;;;26.31;34.66
14293;BME280;62290;59.420;17.842;2023-03-14T10:26:01;97566.13;;;26.30;34.52
14293;BME280;62290;59.420;17.842;2023-03-14T10:28:33;97571.50;;;26.30;34.08
14293;BME280;62290;59.420;17.842;2023-03-14T10:31:03;97562.16;;;26.14;33.19
14293;BME280;62290;59.420;17.842;2023-03-14T10:33:33;97570.38;;;26.19;32.72
14293;BME280;62290;59.420;17.842;2023-03-14T10:36:03;97581.53;;;26.23;31.72
14293;BME280;62290;59.420;17.842;2023-03-14T10:38:35;97577.50;;;26.14;30.47
14293;BME280;62290;59.420;17.842;2023-03-14T10:41:15;97585.06;;;26.23;29.72
14293;BME280;62290;59.420;17.842;2023-03-14T10:43:44;97586.34;;;26.21;28.84
14293;BME280;62290;59.420;17.842;2023-03-14T10:46:15;97585.53;;;26.20;28.37
14293;BME280;62290;59.420;17.842;2023-03-14T10:49:04;97585.16;;;26.17;27.43
14293;BME280;62290;59.420;17.842;2023-03-14T10:51:33;97593.69;;;26.14;26.76
14293;BME280;62290;59.420;17.842;2023-03-14T10:54:02;97590.38;;;26.12;26.81
14293;BME280;62290;59.420;17.842;2023-03-14T10:56:34;97598.09;;;26.08;26.49
14293;BME280;62290;59.420;17.842;2023-03-14T10:59:07;97598.91;;;26.09;26.75
14293;BME280;62290;59.420;17.842;2023-03-14T11:01:42;97597.25;;;26.08;26.16
14293;BME280;62290;59.420;17.842;2023-03-14T11:04:22;97595.84;;;26.05;25.87
14293;BME280;62290;59.420;17.842;2023-03-14T11:06:58;97598.53;;;26.05;26.05
14293;BME280;62290;59.420;17.842;2023-03-14T11:09:34;97602.28;;;26.04;25.82
14293;BME280;62290;59.420;17.842;2023-03-14T11:12:18;97616.00;;;26.03;25.25
14293;BME280;62290;59.420;17.842;2023-03-14T11:14:55;97616.00;;;26.03;24.81
14293;BME280;62290;59.420;17.842;2023-03-14T11:17:30;97618.09;;;26.01;25.20
14293;BME280;62290;59.420;17.842;2023-03-14T11:20:17;97614.81;;;25.99;25.00
14293;BME280;62290;59.420;17.842;2023-03-14T11:22:55;97633.88;;;25.97;24.79
14293;BME280;62290;59.420;17.842;2023-03-14T11:25:30;97629.31;;;25.98;24.57
14293;BME280;62290;59.420;17.842;2023-03-14T11:28:06;97631.44;;;25.96;24.10
14293;BME280;62290;59.420;17.842;2023-03-14T11:30:41;97634.97;;;25.96;24.19
14293;BME280;62290;59.420;17.842;2023-03-14T11:33:16;97636.81;;;25.96;24.08
14293;BME280;62290;59.420;17.842;2023-03-14T11:35:47;97631.63;;;25.94;23.65
14293;BME280;62290;59.420;17.842;2023-03-14T11:38:28;97639.72;;;25.94;23.48
14293;BME280;62290;59.420;17.842;2023-03-14T11:40:58;97633.72;;;25.92;23.51
14293;BME280;62290;59.420;17.842;2023-03-14T11:43:29;97645.34;;;25.93;23.26
14293;BME280;62290;59.420;17.842;2023-03-14T11:46:03;97650.97;;;25.91;23.22
14293;BME280;62290;59.420;17.842;2023-03-14T11:48:42;97649.31;;;25.90;23.12
14293;BME280;62290;59.420;17.842;2023-03-14T11:51:17;97646.47;;;25.85;23.49
14293;BME280;62290;59.420;17.842;2023-03-14T11:53:53;97658.44;;;25.89;23.11
14293;BME280;62290;59.420;17.842;2023-03-14T11:56:29;97661.38;;;25.88;22.98
14293;BME280;62290;59.420;17.842;2023-03-14T11:59:02;97665.13;;;25.87;22.90
14293;BME280;62290;59.420;17.842;2023-03-14T12:01:44;97664.31;;;25.86;22.90
14293;BME280;62290;59.420;17.842;2023-03-14T12:04:22;97668.28;;;25.84;23.23
14293;BME280;62290;59.420;17.842;2023-03-14T12:07:01;97666.38;;;25.84;23.17
14293;BME280;62290;59.420;17.842;2023-03-14T12:09:31;97669.53;;;25.81;22.85
14293;BME280;62290;59.420;17.842;2023-03-14T12:12:00;97675.53;;;25.83;22.85
14293;BME280;62290;59.420;17.842;2023-03-14T12:14:32;97653.91;;;25.65;22.79
14293;BME280;62290;59.420;17.842;2023-03-14T12:17:05;97672.44;;;25.80;22.73
14293;BME280;62290;59.420;17.842;2023-03-14T12:19:37;97684.50;;;25.77;22.61
14293;BME280;62290;59.420;17.842;2023-03-14T12:22:15;97681.81;;;25.77;22.43
14293;BME280;62290;59.420;17.842;2023-03-14T12:24:50;97684.72;;;25.75;22.57
14293;BME280;62290;59.420;17.842;2023-03-14T12:27:42;97683.91;;;25.75;22.42
14293;BME280;62290;59.420;17.842;2023-03-14T12:30:18;97692.19;;;25.73;22.61
14293;BME280;62290;59.420;17.842;2023-03-14T12:36:20;97691.22;;;25.68;22.17
14293;BME280;62290;59.420;17.842;2023-03-14T12:39:19;97687.69;;;25.67;22.41
14293;BME280;62290;59.420;17.842;2023-03-14T12:41:52;97687.91;;;25.66;22.25
14293;BME280;62290;59.420;17.842;2023-03-14T12:44:41;97688.72;;;25.66;21.89
14293;BME280;62290;59.420;17.842;2023-03-14T12:50:31;97683.16;;;25.61;21.91
14293;BME280;62290;59.420;17.842;2023-03-14T12:56:55;97685.25;;;25.59;21.92
14293;BME280;62290;59.420;17.842;2023-03-14T12:59:30;97691.69;;;25.58;22.12
14293;BME280;62290;59.420;17.842;2023-03-14T13:02:14;97688.16;;;25.58;22.13
14293;BME280;62290;59.420;17.842;2023-03-14T13:04:48;97691.69;;;25.58;21.70
14293;BME280;62290;59.420;17.842;2023-03-14T13:10:28;97699.41;;;25.55;21.76
14293;BME280;62290;59.420;17.842;2023-03-14T13:13:14;97701.03;;;25.56;21.90
14293;BME280;62290;59.420;17.842;2023-03-14T13:15:44;97708.31;;;25.55;21.88
14293;BME280;62290;59.420;17.842;2023-03-14T13:18:15;97704.81;;;25.55;21.75
14293;BME280;62290;59.420;17.842;2023-03-14T13:20:45;97716.38;;;25.55;21.55
14293;BME280;62290;59.420;17.842;2023-03-14T13:23:21;97711.00;;;25.55;21.61
14293;BME280;62290;59.420;17.842;2023-03-14T13:25:51;97715.59;;;25.55;21.91
14293;BME280;62290;59.420;17.842;2023-03-14T13:28:19;97715.78;;;25.53;21.80
14293;BME280;62290;59.420;17.842;2023-03-14T13:30:49;97721.41;;;25.52;21.81
14293;BME280;62290;59.420;17.842;2023-03-14T13:33:19;97725.13;;;25.51;21.89